sensor_id;sensor_type;location;lat;lon;timestamp;P1;durP1;ratioP1;P2;durP2;ratioP2
20890;SDS011;10605;52.968;8.844;2023-06-04T00:00:47;4.32;;;1.85;;
20890;SDS011;10605;52.968;8.844;2023-06-04T00:03:13;3.00;;;2.20;;
20890;SDS011;10605;52.968;8.844;2023-06-04T00:05:39;3.67;;;2.00;;
20890;SDS011;10605;52.968;8.844;2023-06-04T00:08:05;3.97;;;2.30;;
20890;SDS011;10605;52.968;8.844;2023-06-04T00:10:30;8.50;;;2.55;;
20890;SDS011;10605;52.968;8.844;2023-06-04T00:12:58;4.13;;;2.22;;
20890;SDS011;10605;52.968;8.844;2023-06-04T00:15:25;2.22;;;1.77;;
20890;SDS011;10605;52.968;8.844;2023-06-04T00:17:51;2.35;;;1.90;;
20890;SDS011;10605;52.968;8.844;2023-06-04T00:20:17;9.55;;;2.38;;
20890;SDS011;10605;52.968;8.844;2023-06-04T00:22:43;5.07;;;2.22;;
20890;SDS011;10605;52.968;8.844;2023-06-04T00:25:09;4.43;;;2.08;;
20890;SDS011;10605;52.968;8.844;2023-06-04T00:27:35;2.80;;;2.20;;
20890;SDS011;10605;52.968;8.844;2023-06-04T00:30:01;7.10;;;2.20;;
20890;SDS011;10605;52.968;8.844;2023-06-04T00:32:27;2.55;;;2.35;;
20890;SDS011;10605;52.968;8.844;2023-06-04T00:34:54;3.88;;;2.15;;
20890;SDS011;10605;52.968;8.844;2023-06-04T00:37:21;9.57;;;2.00;;
20890;SDS011;10605;52.968;8.844;2023-06-04T00:39:47;3.92;;;2.00;;
20890;SDS011;10605;52.968;8.844;2023-06-04T00:42:13;3.55;;;2.03;;
20890;SDS011;10605;52.968;8.844;2023-06-04T00:44:39;2.92;;;2.05;;
20890;SDS011;10605;52.968;8.844;2023-06-04T00:47:12;3.00;;;2.35;;
20890;SDS011;10605;52.968;8.844;2023-06-04T00:49:42;3.42;;;2.38;;
20890;SDS011;10605;52.968;8.844;2023-06-04T00:52:08;5.10;;;1.95;;
20890;SDS011;10605;52.968;8.844;2023-06-04T00:54:34;4.93;;;2.08;;
20890;SDS011;10605;52.968;8.844;2023-06-04T00:57:02;2.83;;;1.88;;
20890;SDS011;10605;52.968;8.844;2023-06-04T00:59:28;8.00;;;2.20;;
20890;SDS011;10605;52.968;8.844;2023-06-04T01:07:09;3.63;;;2.47;;
20890;SDS011;10605;52.968;8.844;2023-06-04T01:09:38;2.35;;;2.15;;
20890;SDS011;10605;52.968;8.844;2023-06-04T01:12:04;2.90;;;2.25;;
20890;SDS011;10605;52.968;8.844;2023-06-04T01:14:31;3.55;;;2.45;;
20890;SDS011;10605;52.968;8.844;2023-06-04T01:16:59;6.63;;;3.00;;
20890;SDS011;10605;52.968;8.844;2023-06-04T01:25:24;3.95;;;2.63;;
20890;SDS011;10605;52.968;8.844;2023-06-04T01:28:09;5.85;;;2.63;;
20890;SDS011;10605;52.968;8.844;2023-06-04T01:30:37;6.00;;;2.17;;
20890;SDS011;10605;52.968;8.844;2023-06-04T01:33:10;6.03;;;2.35;;
20890;SDS011;10605;52.968;8.844;2023-06-04T01:35:37;3.05;;;2.50;;
20890;SDS011;10605;52.968;8.844;2023-06-04T01:38:04;4.22;;;2.40;;
20890;SDS011;10605;52.968;8.844;2023-06-04T01:40:30;4.43;;;2.45;;
20890;SDS011;10605;52.968;8.844;2023-06-04T01:42:57;2.67;;;2.47;;
20890;SDS011;10605;52.968;8.844;2023-06-04T01:45:23;2.55;;;2.35;;
20890;SDS011;10605;52.968;8.844;2023-06-04T01:47:50;3.08;;;2.50;;
20890;SDS011;10605;52.968;8.844;2023-06-04T01:50:16;3.22;;;2.40;;
20890;SDS011;10605;52.968;8.844;2023-06-04T01:52:43;2.67;;;2.30;;
20890;SDS011;10605;52.968;8.844;2023-06-04T01:55:09;7.30;;;3.00;;
20890;SDS011;10605;52.968;8.844;2023-06-04T01:57:40;2.70;;;2.50;;
20890;SDS011;10605;52.968;8.844;2023-06-04T02:00:09;7.83;;;2.40;;
20890;SDS011;10605;52.968;8.844;2023-06-04T02:02:37;6.50;;;2.65;;
20890;SDS011;10605;52.968;8.844;2023-06-04T02:05:03;3.72;;;2.35;;
20890;SDS011;10605;52.968;8.844;2023-06-04T02:07:34;5.57;;;3.35;;
20890;SDS011;10605;52.968;8.844;2023-06-04T02:10:00;3.78;;;2.70;;
20890;SDS011;10605;52.968;8.844;2023-06-04T02:12:26;4.22;;;2.85;;
20890;SDS011;10605;52.968;8.844;2023-06-04T02:14:52;4.95;;;3.00;;
20890;SDS011;10605;52.968;8.844;2023-06-04T02:17:17;4.20;;;2.38;;
20890;SDS011;10605;52.968;8.844;2023-06-04T02:19:43;3.00;;;2.55;;
20890;SDS011;10605;52.968;8.844;2023-06-04T02:22:10;4.18;;;2.67;;
20890;SDS011;10605;52.968;8.844;2023-06-04T02:24:37;5.35;;;2.42;;
20890;SDS011;10605;52.968;8.844;2023-06-04T02:27:04;7.85;;;2.83;;
20890;SDS011;10605;52.968;8.844;2023-06-04T02:29:31;3.38;;;2.67;;
20890;SDS011;10605;52.968;8.844;2023-06-04T02:31:57;4.88;;;2.88;;
20890;SDS011;10605;52.968;8.844;2023-06-04T02:34:23;3.45;;;2.47;;
20890;SDS011;10605;52.968;8.844;2023-06-04T02:36:50;2.88;;;2.67;;
20890;SDS011;10605;52.968;8.844;2023-06-04T02:39:18;8.10;;;3.28;;
20890;SDS011;10605;52.968;8.844;2023-06-04T02:41:45;6.50;;;2.60;;
20890;SDS011;10605;52.968;8.844;2023-06-04T02:44:11;4.63;;;3.08;;
20890;SDS011;10605;52.968;8.844;2023-06-04T02:46:37;3.38;;;2.50;;
20890;SDS011;10605;52.968;8.844;2023-06-04T02:49:03;6.68;;;3.00;;
20890;SDS011;10605;52.968;8.844;2023-06-04T02:51:29;4.93;;;2.92;;
20890;SDS011;10605;52.968;8.844;2023-06-04T02:53:55;6.63;;;3.05;;
20890;SDS011;10605;52.968;8.844;2023-06-04T02:56:21;4.38;;;2.80;;
20890;SDS011;10605;52.968;8.844;2023-06-04T02:58:53;3.50;;;3.20;;
20890;SDS011;10605;52.968;8.844;2023-06-04T03:01:21;3.55;;;3.25;;
20890;SDS011;10605;52.968;8.844;2023-06-04T03:03:48;4.15;;;3.30;;
20890;SDS011;10605;52.968;8.844;2023-06-04T03:06:15;3.42;;;2.88;;
20890;SDS011;10605;52.968;8.844;2023-06-04T03:08:43;5.07;;;2.90;;
20890;SDS011;10605;52.968;8.844;2023-06-04T03:11:10;4.18;;;3.30;;
20890;SDS011;10605;52.968;8.844;2023-06-04T03:13:35;3.10;;;2.78;;
20890;SDS011;10605;52.968;8.844;2023-06-04T03:16:01;3.95;;;3.22;;
20890;SDS011;10605;52.968;8.844;2023-06-04T03:18:28;4.03;;;3.25;;
20890;SDS011;10605;52.968;8.844;2023-06-04T03:20:54;11.10;;;4.00;;
20890;SDS011;10605;52.968;8.844;2023-06-04T03:23:23;5.97;;;4.20;;
20890;SDS011;10605;52.968;8.844;2023-06-04T03:25:48;5.72;;;3.30;;
20890;SDS011;10605;52.968;8.844;2023-06-04T03:28:14;4.05;;;3.10;;
20890;SDS011;10605;52.968;8.844;2023-06-04T03:30:40;4.35;;;3.10;;
20890;SDS011;10605;52.968;8.844;2023-06-04T03:33:06;3.80;;;3.30;;
20890;SDS011;10605;52.968;8.844;2023-06-04T03:35:33;4.60;;;3.00;;
20890;SDS011;10605;52.968;8.844;2023-06-04T03:37:58;4.68;;;2.95;;
20890;SDS011;10605;52.968;8.844;2023-06-04T03:40:24;3.20;;;2.90;;
20890;SDS011;10605;52.968;8.844;2023-06-04T03:42:50;5.13;;;2.90;;
20890;SDS011;10605;52.968;8.844;2023-06-04T03:45:16;4.07;;;2.95;;
20890;SDS011;10605;52.968;8.844;2023-06-04T03:47:41;5.75;;;2.95;;
20890;SDS011;10605;52.968;8.844;2023-06-04T03:50:07;4.78;;;3.47;;
20890;SDS011;10605;52.968;8.844;2023-06-04T03:52:33;5.38;;;2.72;;
20890;SDS011;10605;52.968;8.844;2023-06-04T03:55:00;7.68;;;2.50;;
20890;SDS011;10605;52.968;8.844;2023-06-04T03:57:26;5.75;;;2.72;;
20890;SDS011;10605;52.968;8.844;2023-06-04T03:59:52;6.00;;;3.08;;
20890;SDS011;10605;52.968;8.844;2023-06-04T04:02:18;4.80;;;2.78;;
20890;SDS011;10605;52.968;8.844;2023-06-04T04:04:44;6.78;;;2.70;;
20890;SDS011;10605;52.968;8.844;2023-06-04T04:07:09;3.45;;;2.80;;
20890;SDS011;10605;52.968;8.844;2023-06-04T04:09:35;4.88;;;2.35;;
20890;SDS011;10605;52.968;8.844;2023-06-04T04:12:02;6.90;;;3.03;;
20890;SDS011;10605;52.968;8.844;2023-06-04T04:14:30;10.05;;;3.10;;
20890;SDS011;10605;52.968;8.844;2023-06-04T04:16:56;4.10;;;3.10;;
20890;SDS011;10605;52.968;8.844;2023-06-04T04:19:22;3.35;;;2.60;;
20890;SDS011;10605;52.968;8.844;2023-06-04T04:21:48;4.10;;;2.78;;
20890;SDS011;10605;52.968;8.844;2023-06-04T04:24:26;3.58;;;2.83;;
20890;SDS011;10605;52.968;8.844;2023-06-04T04:26:53;2.72;;;2.53;;
20890;SDS011;10605;52.968;8.844;2023-06-04T04:29:19;2.80;;;2.50;;
20890;SDS011;10605;52.968;8.844;2023-06-04T04:31:56;3.33;;;2.38;;
20890;SDS011;10605;52.968;8.844;2023-06-04T04:34:22;4.20;;;2.45;;
20890;SDS011;10605;52.968;8.844;2023-06-04T04:36:50;5.50;;;2.80;;
20890;SDS011;10605;52.968;8.844;2023-06-04T04:39:22;3.65;;;2.83;;
20890;SDS011;10605;52.968;8.844;2023-06-04T04:41:49;6.63;;;2.55;;
20890;SDS011;10605;52.968;8.844;2023-06-04T04:44:15;4.78;;;2.17;;
20890;SDS011;10605;52.968;8.844;2023-06-04T04:46:41;4.32;;;2.15;;
20890;SDS011;10605;52.968;8.844;2023-06-04T04:49:07;9.30;;;3.00;;
20890;SDS011;10605;52.968;8.844;2023-06-04T04:51:33;3.63;;;2.45;;
20890;SDS011;10605;52.968;8.844;2023-06-04T04:53:59;4.10;;;1.92;;
20890;SDS011;10605;52.968;8.844;2023-06-04T04:56:25;3.03;;;2.30;;
20890;SDS011;10605;52.968;8.844;2023-06-04T04:58:51;4.82;;;2.70;;
20890;SDS011;10605;52.968;8.844;2023-06-04T05:01:18;3.80;;;2.20;;
20890;SDS011;10605;52.968;8.844;2023-06-04T05:03:44;2.47;;;2.05;;
20890;SDS011;10605;52.968;8.844;2023-06-04T05:06:10;2.92;;;2.47;;
20890;SDS011;10605;52.968;8.844;2023-06-04T05:08:36;5.63;;;2.08;;
20890;SDS011;10605;52.968;8.844;2023-06-04T05:11:01;3.50;;;2.70;;
20890;SDS011;10605;52.968;8.844;2023-06-04T05:13:27;3.20;;;2.45;;
20890;SDS011;10605;52.968;8.844;2023-06-04T05:15:53;3.78;;;2.13;;
20890;SDS011;10605;52.968;8.844;2023-06-04T05:18:19;1.92;;;1.77;;
20890;SDS011;10605;52.968;8.844;2023-06-04T05:20:46;2.55;;;2.13;;
20890;SDS011;10605;52.968;8.844;2023-06-04T05:23:12;5.30;;;2.40;;
20890;SDS011;10605;52.968;8.844;2023-06-04T05:25:39;5.53;;;2.38;;
20890;SDS011;10605;52.968;8.844;2023-06-04T05:28:06;4.47;;;1.98;;
20890;SDS011;10605;52.968;8.844;2023-06-04T05:30:32;3.75;;;2.13;;
20890;SDS011;10605;52.968;8.844;2023-06-04T05:32:59;5.78;;;2.33;;
20890;SDS011;10605;52.968;8.844;2023-06-04T05:35:24;7.78;;;2.53;;
20890;SDS011;10605;52.968;8.844;2023-06-04T05:37:50;3.28;;;2.30;;
20890;SDS011;10605;52.968;8.844;2023-06-04T05:40:20;4.10;;;2.10;;
20890;SDS011;10605;52.968;8.844;2023-06-04T05:42:46;3.03;;;2.13;;
20890;SDS011;10605;52.968;8.844;2023-06-04T05:45:13;5.18;;;2.17;;
20890;SDS011;10605;52.968;8.844;2023-06-04T05:47:39;4.85;;;2.20;;
20890;SDS011;10605;52.968;8.844;2023-06-04T05:50:05;3.33;;;2.45;;
20890;SDS011;10605;52.968;8.844;2023-06-04T05:52:31;3.00;;;1.90;;
20890;SDS011;10605;52.968;8.844;2023-06-04T05:54:59;2.92;;;2.05;;
20890;SDS011;10605;52.968;8.844;2023-06-04T05:57:25;7.28;;;2.20;;
20890;SDS011;10605;52.968;8.844;2023-06-04T05:59:51;2.00;;;1.80;;
20890;SDS011;10605;52.968;8.844;2023-06-04T06:02:16;3.95;;;2.38;;
20890;SDS011;10605;52.968;8.844;2023-06-04T06:04:43;6.75;;;1.77;;
20890;SDS011;10605;52.968;8.844;2023-06-04T06:07:08;1.83;;;1.58;;
20890;SDS011;10605;52.968;8.844;2023-06-04T06:09:34;3.58;;;2.20;;
20890;SDS011;10605;52.968;8.844;2023-06-04T06:12:01;4.57;;;2.10;;
20890;SDS011;10605;52.968;8.844;2023-06-04T06:14:26;4.10;;;1.80;;
20890;SDS011;10605;52.968;8.844;2023-06-04T06:16:52;3.40;;;1.85;;
20890;SDS011;10605;52.968;8.844;2023-06-04T06:19:18;3.67;;;2.08;;
20890;SDS011;10605;52.968;8.844;2023-06-04T06:21:44;2.75;;;1.85;;
20890;SDS011;10605;52.968;8.844;2023-06-04T06:24:10;2.55;;;1.52;;
20890;SDS011;10605;52.968;8.844;2023-06-04T06:26:36;4.30;;;2.10;;
20890;SDS011;10605;52.968;8.844;2023-06-04T06:29:02;3.60;;;2.03;;
20890;SDS011;10605;52.968;8.844;2023-06-04T06:31:28;3.47;;;2.05;;
20890;SDS011;10605;52.968;8.844;2023-06-04T06:33:53;2.95;;;1.65;;
20890;SDS011;10605;52.968;8.844;2023-06-04T06:36:19;6.00;;;1.75;;
20890;SDS011;10605;52.968;8.844;2023-06-04T06:38:45;5.43;;;1.95;;
20890;SDS011;10605;52.968;8.844;2023-06-04T06:41:11;3.25;;;1.80;;
20890;SDS011;10605;52.968;8.844;2023-06-04T06:43:37;3.13;;;1.83;;
20890;SDS011;10605;52.968;8.844;2023-06-04T06:46:03;8.00;;;2.10;;
20890;SDS011;10605;52.968;8.844;2023-06-04T06:48:28;2.60;;;2.08;;
20890;SDS011;10605;52.968;8.844;2023-06-04T06:50:54;4.70;;;2.40;;
20890;SDS011;10605;52.968;8.844;2023-06-04T06:53:20;4.80;;;1.67;;
20890;SDS011;10605;52.968;8.844;2023-06-04T06:55:46;4.10;;;2.03;;
20890;SDS011;10605;52.968;8.844;2023-06-04T06:58:12;3.95;;;1.70;;
20890;SDS011;10605;52.968;8.844;2023-06-04T07:00:38;7.70;;;2.03;;
20890;SDS011;10605;52.968;8.844;2023-06-04T07:03:03;3.05;;;1.75;;
20890;SDS011;10605;52.968;8.844;2023-06-04T07:05:29;2.42;;;1.58;;
20890;SDS011;10605;52.968;8.844;2023-06-04T07:07:55;2.25;;;1.60;;
20890;SDS011;10605;52.968;8.844;2023-06-04T07:10:22;4.13;;;1.70;;
20890;SDS011;10605;52.968;8.844;2023-06-04T07:12:49;2.22;;;1.35;;
20890;SDS011;10605;52.968;8.844;2023-06-04T07:15:15;1.95;;;1.30;;
20890;SDS011;10605;52.968;8.844;2023-06-04T07:17:41;3.78;;;1.48;;
20890;SDS011;10605;52.968;8.844;2023-06-04T07:20:07;3.30;;;1.60;;
20890;SDS011;10605;52.968;8.844;2023-06-04T07:22:34;2.35;;;1.45;;
20890;SDS011;10605;52.968;8.844;2023-06-04T07:25:00;5.22;;;1.20;;
20890;SDS011;10605;52.968;8.844;2023-06-04T07:27:27;4.00;;;1.85;;
20890;SDS011;10605;52.968;8.844;2023-06-04T07:29:53;7.15;;;1.80;;
20890;SDS011;10605;52.968;8.844;2023-06-04T07:32:25;6.10;;;1.73;;
20890;SDS011;10605;52.968;8.844;2023-06-04T07:34:51;3.85;;;1.55;;
20890;SDS011;10605;52.968;8.844;2023-06-04T07:37:16;2.08;;;1.40;;
20890;SDS011;10605;52.968;8.844;2023-06-04T07:39:42;1.40;;;1.13;;
20890;SDS011;10605;52.968;8.844;2023-06-04T07:42:08;3.53;;;1.38;;
20890;SDS011;10605;52.968;8.844;2023-06-04T07:44:36;4.32;;;1.27;;
20890;SDS011;10605;52.968;8.844;2023-06-04T07:47:03;3.80;;;1.38;;
20890;SDS011;10605;52.968;8.844;2023-06-04T07:49:29;2.35;;;1.20;;
20890;SDS011;10605;52.968;8.844;2023-06-04T07:51:55;2.17;;;1.30;;
20890;SDS011;10605;52.968;8.844;2023-06-04T07:54:21;1.75;;;1.50;;
20890;SDS011;10605;52.968;8.844;2023-06-04T07:56:46;1.27;;;1.10;;
20890;SDS011;10605;52.968;8.844;2023-06-04T07:59:12;3.35;;;1.52;;
20890;SDS011;10605;52.968;8.844;2023-06-04T08:01:38;1.02;;;1.00;;
20890;SDS011;10605;52.968;8.844;2023-06-04T08:04:04;2.50;;;1.40;;
20890;SDS011;10605;52.968;8.844;2023-06-04T08:06:30;2.10;;;1.33;;
20890;SDS011;10605;52.968;8.844;2023-06-04T08:08:55;7.03;;;1.83;;
20890;SDS011;10605;52.968;8.844;2023-06-04T08:11:21;2.50;;;1.55;;
20890;SDS011;10605;52.968;8.844;2023-06-04T08:13:50;1.95;;;1.30;;
20890;SDS011;10605;52.968;8.844;2023-06-04T08:16:15;5.38;;;2.00;;
20890;SDS011;10605;52.968;8.844;2023-06-04T08:18:41;2.28;;;1.10;;
20890;SDS011;10605;52.968;8.844;2023-06-04T08:21:10;2.72;;;1.15;;
20890;SDS011;10605;52.968;8.844;2023-06-04T08:23:37;5.38;;;1.30;;
20890;SDS011;10605;52.968;8.844;2023-06-04T08:26:03;4.80;;;1.25;;
20890;SDS011;10605;52.968;8.844;2023-06-04T08:28:28;1.52;;;0.95;;
20890;SDS011;10605;52.968;8.844;2023-06-04T08:30:54;2.95;;;1.05;;
20890;SDS011;10605;52.968;8.844;2023-06-04T08:33:20;1.75;;;1.42;;
20890;SDS011;10605;52.968;8.844;2023-06-04T08:35:46;2.78;;;1.02;;
20890;SDS011;10605;52.968;8.844;2023-06-04T08:38:12;3.63;;;1.38;;
20890;SDS011;10605;52.968;8.844;2023-06-04T08:40:37;4.45;;;1.13;;
20890;SDS011;10605;52.968;8.844;2023-06-04T08:43:03;2.65;;;1.40;;
20890;SDS011;10605;52.968;8.844;2023-06-04T08:45:30;3.00;;;1.20;;
20890;SDS011;10605;52.968;8.844;2023-06-04T08:48:03;1.73;;;0.93;;
20890;SDS011;10605;52.968;8.844;2023-06-04T08:50:31;2.15;;;1.23;;
20890;SDS011;10605;52.968;8.844;2023-06-04T08:52:57;2.33;;;0.70;;
20890;SDS011;10605;52.968;8.844;2023-06-04T08:55:23;2.92;;;1.70;;
20890;SDS011;10605;52.968;8.844;2023-06-04T08:57:49;1.58;;;0.90;;
20890;SDS011;10605;52.968;8.844;2023-06-04T09:00:18;1.13;;;0.60;;
20890;SDS011;10605;52.968;8.844;2023-06-04T09:02:44;0.77;;;0.70;;
20890;SDS011;10605;52.968;8.844;2023-06-04T09:05:11;2.33;;;0.70;;
20890;SDS011;10605;52.968;8.844;2023-06-04T09:07:46;2.03;;;0.70;;
20890;SDS011;10605;52.968;8.844;2023-06-04T09:10:12;2.55;;;1.00;;
20890;SDS011;10605;52.968;8.844;2023-06-04T09:12:43;4.43;;;0.95;;
20890;SDS011;10605;52.968;8.844;2023-06-04T09:15:11;1.65;;;0.90;;
20890;SDS011;10605;52.968;8.844;2023-06-04T09:17:37;1.20;;;0.80;;
20890;SDS011;10605;52.968;8.844;2023-06-04T09:20:03;1.30;;;0.73;;
20890;SDS011;10605;52.968;8.844;2023-06-04T09:22:33;1.58;;;0.85;;
20890;SDS011;10605;52.968;8.844;2023-06-04T09:25:01;1.15;;;0.60;;
20890;SDS011;10605;52.968;8.844;2023-06-04T09:27:38;3.88;;;1.88;;
20890;SDS011;10605;52.968;8.844;2023-06-04T09:30:05;1.40;;;1.10;;
20890;SDS011;10605;52.968;8.844;2023-06-04T09:32:33;4.88;;;0.68;;
20890;SDS011;10605;52.968;8.844;2023-06-04T09:35:18;4.63;;;0.93;;
20890;SDS011;10605;52.968;8.844;2023-06-04T09:37:54;2.88;;;0.80;;
20890;SDS011;10605;52.968;8.844;2023-06-04T09:40:23;0.98;;;0.70;;
20890;SDS011;10605;52.968;8.844;2023-06-04T09:42:49;1.42;;;0.63;;
20890;SDS011;10605;52.968;8.844;2023-06-04T09:45:34;1.55;;;0.75;;
20890;SDS011;10605;52.968;8.844;2023-06-04T09:48:00;3.13;;;0.95;;
20890;SDS011;10605;52.968;8.844;2023-06-04T09:50:31;1.73;;;0.60;;
20890;SDS011;10605;52.968;8.844;2023-06-04T09:52:59;2.83;;;0.80;;
20890;SDS011;10605;52.968;8.844;2023-06-04T09:55:27;2.97;;;0.50;;
20890;SDS011;10605;52.968;8.844;2023-06-04T09:57:53;2.38;;;0.68;;
20890;SDS011;10605;52.968;8.844;2023-06-04T10:00:20;1.92;;;0.70;;
20890;SDS011;10605;52.968;8.844;2023-06-04T10:02:48;0.98;;;0.68;;
20890;SDS011;10605;52.968;8.844;2023-06-04T10:05:14;1.23;;;0.80;;
20890;SDS011;10605;52.968;8.844;2023-06-04T10:07:42;4.25;;;0.77;;
20890;SDS011;10605;52.968;8.844;2023-06-04T10:10:11;2.25;;;0.60;;
20890;SDS011;10605;52.968;8.844;2023-06-04T10:12:42;0.80;;;0.80;;
20890;SDS011;10605;52.968;8.844;2023-06-04T10:15:12;1.52;;;0.80;;
20890;SDS011;10605;52.968;8.844;2023-06-04T10:17:38;0.68;;;0.68;;
20890;SDS011;10605;52.968;8.844;2023-06-04T10:20:06;2.05;;;0.82;;
20890;SDS011;10605;52.968;8.844;2023-06-04T10:22:35;4.35;;;0.80;;
20890;SDS011;10605;52.968;8.844;2023-06-04T10:25:03;0.85;;;0.60;;
20890;SDS011;10605;52.968;8.844;2023-06-04T10:27:31;0.50;;;0.50;;
20890;SDS011;10605;52.968;8.844;2023-06-04T10:29:57;4.07;;;0.77;;
20890;SDS011;10605;52.968;8.844;2023-06-04T10:32:28;1.13;;;0.50;;
20890;SDS011;10605;52.968;8.844;2023-06-04T10:34:54;4.47;;;0.80;;
20890;SDS011;10605;52.968;8.844;2023-06-04T10:37:22;1.67;;;0.85;;
20890;SDS011;10605;52.968;8.844;2023-06-04T10:42:18;1.15;;;0.73;;
20890;SDS011;10605;52.968;8.844;2023-06-04T10:44:47;8.05;;;0.73;;
20890;SDS011;10605;52.968;8.844;2023-06-04T10:47:24;1.35;;;0.95;;
20890;SDS011;10605;52.968;8.844;2023-06-04T10:49:54;1.98;;;0.90;;
20890;SDS011;10605;52.968;8.844;2023-06-04T10:52:23;1.08;;;0.75;;
20890;SDS011;10605;52.968;8.844;2023-06-04T10:54:49;0.80;;;0.68;;
20890;SDS011;10605;52.968;8.844;2023-06-04T10:57:18;2.67;;;0.88;;
20890;SDS011;10605;52.968;8.844;2023-06-04T10:59:55;2.05;;;0.90;;
20890;SDS011;10605;52.968;8.844;2023-06-04T11:02:21;3.53;;;1.10;;
20890;SDS011;10605;52.968;8.844;2023-06-04T11:04:58;4.35;;;1.00;;
20890;SDS011;10605;52.968;8.844;2023-06-04T11:07:43;0.90;;;0.70;;
20890;SDS011;10605;52.968;8.844;2023-06-04T11:10:11;1.30;;;1.00;;
20890;SDS011;10605;52.968;8.844;2023-06-04T11:12:45;4.47;;;0.60;;
20890;SDS011;10605;52.968;8.844;2023-06-04T11:15:16;0.85;;;0.60;;
20890;SDS011;10605;52.968;8.844;2023-06-04T11:17:55;2.72;;;0.80;;
20890;SDS011;10605;52.968;8.844;2023-06-04T11:20:27;1.17;;;0.65;;
20890;SDS011;10605;52.968;8.844;2023-06-04T11:22:53;1.55;;;0.70;;
20890;SDS011;10605;52.968;8.844;2023-06-04T11:25:25;0.93;;;0.63;;
20890;SDS011;10605;52.968;8.844;2023-06-04T11:28:01;2.78;;;0.90;;
20890;SDS011;10605;52.968;8.844;2023-06-04T11:30:29;3.58;;;0.85;;
20890;SDS011;10605;52.968;8.844;2023-06-04T11:33:02;2.17;;;0.80;;
20890;SDS011;10605;52.968;8.844;2023-06-04T11:35:29;1.27;;;0.95;;
20890;SDS011;10605;52.968;8.844;2023-06-04T11:37:56;1.20;;;0.90;;
20890;SDS011;10605;52.968;8.844;2023-06-04T11:40:23;2.22;;;0.80;;
20890;SDS011;10605;52.968;8.844;2023-06-04T11:42:49;2.22;;;0.70;;
20890;SDS011;10605;52.968;8.844;2023-06-04T11:45:19;2.28;;;0.77;;
20890;SDS011;10605;52.968;8.844;2023-06-04T11:47:52;3.25;;;0.80;;
20890;SDS011;10605;52.968;8.844;2023-06-04T11:50:20;1.67;;;1.10;;
20890;SDS011;10605;52.968;8.844;2023-06-04T11:52:47;1.77;;;0.75;;
20890;SDS011;10605;52.968;8.844;2023-06-04T11:55:13;2.15;;;1.17;;
20890;SDS011;10605;52.968;8.844;2023-06-04T11:57:42;6.00;;;1.00;;
20890;SDS011;10605;52.968;8.844;2023-06-04T12:00:09;1.75;;;1.00;;
20890;SDS011;10605;52.968;8.844;2023-06-04T12:02:39;3.25;;;1.08;;
20890;SDS011;10605;52.968;8.844;2023-06-04T12:05:17;3.03;;;1.10;;
20890;SDS011;10605;52.968;8.844;2023-06-04T12:07:44;6.47;;;1.25;;
20890;SDS011;10605;52.968;8.844;2023-06-04T12:10:21;1.23;;;0.70;;
20890;SDS011;10605;52.968;8.844;2023-06-04T12:12:55;3.40;;;0.80;;
20890;SDS011;10605;52.968;8.844;2023-06-04T12:15:20;3.67;;;1.10;;
20890;SDS011;10605;52.968;8.844;2023-06-04T12:17:50;0.93;;;0.70;;
20890;SDS011;10605;52.968;8.844;2023-06-04T12:20:40;1.17;;;1.08;;
20890;SDS011;10605;52.968;8.844;2023-06-04T12:23:07;1.23;;;0.85;;
20890;SDS011;10605;52.968;8.844;2023-06-04T12:25:33;1.27;;;1.00;;
20890;SDS011;10605;52.968;8.844;2023-06-04T12:27:59;1.13;;;0.93;;
20890;SDS011;10605;52.968;8.844;2023-06-04T12:30:36;6.68;;;1.40;;
20890;SDS011;10605;52.968;8.844;2023-06-04T12:33:03;7.13;;;0.90;;
20890;SDS011;10605;52.968;8.844;2023-06-04T12:35:29;2.05;;;1.23;;
20890;SDS011;10605;52.968;8.844;2023-06-04T12:37:55;2.35;;;1.00;;
20890;SDS011;10605;52.968;8.844;2023-06-04T12:40:21;2.58;;;0.80;;
20890;SDS011;10605;52.968;8.844;2023-06-04T12:42:49;2.90;;;0.90;;
20890;SDS011;10605;52.968;8.844;2023-06-04T12:45:15;1.75;;;1.08;;
20890;SDS011;10605;52.968;8.844;2023-06-04T12:47:42;1.05;;;0.80;;
20890;SDS011;10605;52.968;8.844;2023-06-04T12:50:08;2.35;;;1.20;;
20890;SDS011;10605;52.968;8.844;2023-06-04T12:52:35;6.88;;;1.17;;
20890;SDS011;10605;52.968;8.844;2023-06-04T12:55:01;4.78;;;1.00;;
20890;SDS011;10605;52.968;8.844;2023-06-04T12:57:27;4.03;;;0.80;;
20890;SDS011;10605;52.968;8.844;2023-06-04T12:59:52;1.35;;;0.73;;
20890;SDS011;10605;52.968;8.844;2023-06-04T13:02:18;0.98;;;0.90;;
20890;SDS011;10605;52.968;8.844;2023-06-04T13:04:44;4.25;;;0.90;;
20890;SDS011;10605;52.968;8.844;2023-06-04T13:07:11;4.25;;;1.13;;
20890;SDS011;10605;52.968;8.844;2023-06-04T13:09:37;1.40;;;1.20;;
20890;SDS011;10605;52.968;8.844;2023-06-04T13:12:03;4.20;;;1.05;;
20890;SDS011;10605;52.968;8.844;2023-06-04T13:14:30;5.13;;;2.47;;
20890;SDS011;10605;52.968;8.844;2023-06-04T13:16:58;3.70;;;1.40;;
20890;SDS011;10605;52.968;8.844;2023-06-04T13:19:24;6.25;;;1.15;;
20890;SDS011;10605;52.968;8.844;2023-06-04T13:21:50;1.25;;;1.00;;
20890;SDS011;10605;52.968;8.844;2023-06-04T13:24:16;2.33;;;0.98;;
20890;SDS011;10605;52.968;8.844;2023-06-04T13:26:42;2.42;;;1.05;;
20890;SDS011;10605;52.968;8.844;2023-06-04T13:29:08;4.45;;;1.25;;
20890;SDS011;10605;52.968;8.844;2023-06-04T13:31:33;1.23;;;0.90;;
20890;SDS011;10605;52.968;8.844;2023-06-04T13:33:59;3.20;;;1.38;;
20890;SDS011;10605;52.968;8.844;2023-06-04T13:36:25;2.47;;;1.08;;
20890;SDS011;10605;52.968;8.844;2023-06-04T13:38:51;2.53;;;1.33;;
20890;SDS011;10605;52.968;8.844;2023-06-04T13:41:19;3.42;;;1.40;;
20890;SDS011;10605;52.968;8.844;2023-06-04T13:43:46;2.55;;;1.17;;
20890;SDS011;10605;52.968;8.844;2023-06-04T13:46:12;3.90;;;1.20;;
20890;SDS011;10605;52.968;8.844;2023-06-04T13:48:37;3.97;;;1.90;;
20890;SDS011;10605;52.968;8.844;2023-06-04T13:51:03;4.25;;;1.15;;
20890;SDS011;10605;52.968;8.844;2023-06-04T13:53:29;6.25;;;1.70;;
20890;SDS011;10605;52.968;8.844;2023-06-04T13:55:55;1.67;;;1.40;;
20890;SDS011;10605;52.968;8.844;2023-06-04T13:58:23;2.97;;;1.35;;
20890;SDS011;10605;52.968;8.844;2023-06-04T14:00:52;3.78;;;1.55;;
20890;SDS011;10605;52.968;8.844;2023-06-04T14:03:18;4.93;;;1.40;;
20890;SDS011;10605;52.968;8.844;2023-06-04T14:05:43;2.40;;;1.65;;
20890;SDS011;10605;52.968;8.844;2023-06-04T14:08:09;23.60;;;3.15;;
20890;SDS011;10605;52.968;8.844;2023-06-04T14:10:37;10.70;;;2.40;;
20890;SDS011;10605;52.968;8.844;2023-06-04T14:13:06;3.50;;;1.20;;
20890;SDS011;10605;52.968;8.844;2023-06-04T14:15:32;4.88;;;1.60;;
20890;SDS011;10605;52.968;8.844;2023-06-04T14:17:58;1.73;;;1.17;;
20890;SDS011;10605;52.968;8.844;2023-06-04T14:20:25;5.63;;;1.30;;
20890;SDS011;10605;52.968;8.844;2023-06-04T14:22:50;4.50;;;1.67;;
20890;SDS011;10605;52.968;8.844;2023-06-04T14:25:16;3.45;;;1.35;;
20890;SDS011;10605;52.968;8.844;2023-06-04T14:27:42;3.55;;;1.42;;
20890;SDS011;10605;52.968;8.844;2023-06-04T14:30:08;4.68;;;1.58;;
20890;SDS011;10605;52.968;8.844;2023-06-04T14:32:35;3.08;;;1.50;;
20890;SDS011;10605;52.968;8.844;2023-06-04T14:35:01;4.25;;;1.73;;
20890;SDS011;10605;52.968;8.844;2023-06-04T14:37:27;8.98;;;1.52;;
20890;SDS011;10605;52.968;8.844;2023-06-04T14:39:52;2.75;;;1.73;;
20890;SDS011;10605;52.968;8.844;2023-06-04T14:42:18;2.50;;;1.58;;
20890;SDS011;10605;52.968;8.844;2023-06-04T14:44:44;5.63;;;1.80;;
20890;SDS011;10605;52.968;8.844;2023-06-04T14:47:11;4.00;;;1.52;;
20890;SDS011;10605;52.968;8.844;2023-06-04T14:49:37;3.33;;;1.23;;
20890;SDS011;10605;52.968;8.844;2023-06-04T14:52:02;1.65;;;1.20;;
20890;SDS011;10605;52.968;8.844;2023-06-04T14:54:29;7.32;;;1.70;;
20890;SDS011;10605;52.968;8.844;2023-06-04T14:56:55;5.20;;;1.95;;
20890;SDS011;10605;52.968;8.844;2023-06-04T14:59:20;3.95;;;2.00;;
20890;SDS011;10605;52.968;8.844;2023-06-04T15:01:47;4.43;;;2.00;;